createdAt,value
2022-11-18T00:01:17.043Z,7.36
2022-11-18T00:03:43.918Z,7.39
2022-11-18T00:06:12.355Z,7.38
2022-11-18T00:08:39.167Z,7.38
2022-11-18T00:11:36.718Z,7.35
2022-11-18T00:14:23.324Z,7.36
2022-11-18T00:16:58.303Z,7.39
2022-11-18T00:19:26.874Z,7.38
2022-11-18T00:21:54.073Z,7.38
2022-11-18T00:24:20.860Z,7.37
2022-11-18T00:26:48.163Z,7.36
2022-11-18T00:29:15.171Z,7.38
2022-11-18T00:31:42.495Z,7.41
2022-11-18T00:34:11.508Z,7.38
2022-11-18T00:36:39.086Z,7.40
2022-11-18T00:39:05.778Z,7.39
2022-11-18T00:41:51.033Z,7.39
2022-11-18T00:44:17.751Z,7.36
2022-11-18T00:46:45.314Z,7.40
2022-11-18T00:49:12.008Z,7.37
2022-11-18T00:51:39.183Z,7.39
2022-11-18T00:54:06.010Z,7.37
2022-11-18T00:56:33.198Z,7.41
2022-11-18T00:59:00.022Z,7.40
2022-11-18T01:01:27.092Z,7.39
2022-11-18T01:03:53.863Z,7.43
2022-11-18T01:06:20.943Z,7.38
2022-11-18T01:08:47.700Z,7.42
2022-11-18T01:11:33.434Z,7.40
2022-11-18T01:14:00.137Z,7.40
2022-11-18T01:16:27.741Z,7.45
2022-11-18T01:18:54.529Z,7.44
2022-11-18T01:21:21.744Z,7.41
2022-11-18T01:23:48.606Z,7.39
2022-11-18T01:26:16.139Z,7.38
2022-11-18T01:28:43.041Z,7.43
2022-11-18T01:31:14.926Z,7.39
2022-11-18T01:33:42.069Z,7.37
2022-11-18T01:36:16.546Z,7.37
2022-11-18T01:38:43.281Z,7.41
2022-11-18T01:41:10.346Z,7.39
2022-11-18T01:44:02.137Z,7.41
2022-11-18T01:46:31.033Z,7.41
2022-11-18T01:49:04.498Z,7.40
2022-11-18T01:51:33.756Z,7.40
2022-11-18T01:54:03.694Z,7.39
2022-11-18T01:56:40.981Z,7.42
2022-11-18T01:59:15.852Z,7.45
2022-11-18T02:01:43.215Z,7.47
2022-11-18T02:04:10.092Z,7.42
2022-11-18T02:06:37.388Z,7.40
2022-11-18T02:09:04.492Z,7.40
2022-11-18T02:11:50.160Z,7.40
2022-11-18T02:14:18.365Z,7.39
2022-11-18T02:16:54.068Z,7.43
2022-11-18T02:19:36.020Z,7.39
2022-11-18T02:22:40.557Z,7.41
2022-11-18T02:25:19.211Z,7.41
2022-11-18T02:27:58.015Z,7.42
2022-11-18T02:30:24.795Z,7.40
2022-11-18T02:33:00.297Z,7.37
2022-11-18T02:35:29.766Z,7.44
2022-11-18T02:38:05.977Z,7.36
2022-11-18T02:40:34.854Z,7.42
2022-11-18T02:43:04.815Z,7.42
2022-11-18T02:45:31.574Z,7.40
2022-11-18T02:48:01.318Z,7.39
2022-11-18T02:50:28.071Z,7.41
2022-11-18T02:52:57.728Z,7.41
2022-11-18T02:55:24.536Z,7.43
2022-11-18T02:57:51.673Z,7.38
2022-11-18T03:00:18.493Z,7.36
2022-11-18T03:02:47.542Z,7.34
2022-11-18T03:05:46.654Z,7.37
2022-11-18T03:08:15.462Z,7.36
2022-11-18T03:11:15.893Z,7.36
2022-11-18T03:14:11.085Z,7.38
2022-11-18T03:17:02.298Z,7.37
2022-11-18T03:19:31.984Z,7.36
2022-11-18T03:22:01.809Z,7.38
2022-11-18T03:24:33.294Z,7.39
2022-11-18T03:27:13.843Z,7.37
2022-11-18T03:29:58.558Z,7.35
2022-11-18T03:32:27.122Z,7.30
2022-11-18T03:34:57.824Z,7.31
2022-11-18T03:37:24.642Z,7.31
2022-11-18T03:39:57.047Z,7.32
2022-11-18T03:42:25.007Z,7.28
2022-11-18T03:44:55.893Z,7.29
2022-11-18T03:47:27.189Z,7.29
2022-11-18T03:49:58.085Z,7.31
2022-11-18T03:52:27.065Z,7.32
2022-11-18T03:54:55.070Z,7.31
2022-11-18T03:57:25.777Z,7.27
2022-11-18T03:59:56.889Z,7.21
2022-11-18T04:02:23.986Z,7.27
2022-11-18T04:04:51.895Z,7.25
2022-11-18T04:07:22.283Z,7.31
2022-11-18T04:09:57.823Z,7.29
2022-11-18T04:12:24.602Z,7.29
2022-11-18T04:14:55.470Z,7.23
2022-11-18T04:17:23.532Z,7.22
2022-11-18T04:19:50.587Z,7.25
2022-11-18T04:22:19.231Z,7.25
2022-11-18T04:24:46.264Z,7.25
2022-11-18T04:27:13.269Z,7.24
2022-11-18T04:29:40.270Z,7.21
2022-11-18T04:32:07.012Z,7.25
2022-11-18T04:34:34.047Z,7.25
2022-11-18T04:37:00.888Z,7.23
2022-11-18T04:39:28.169Z,7.23
2022-11-18T04:41:57.931Z,7.16
2022-11-18T04:44:32.213Z,7.15
2022-11-18T04:47:00.452Z,7.17
2022-11-18T04:49:27.788Z,7.17
2022-11-18T04:51:54.829Z,7.11
2022-11-18T04:54:22.054Z,7.15
2022-11-18T04:56:49.824Z,7.18
2022-11-18T04:59:19.150Z,7.16
2022-11-18T05:01:46.324Z,7.20
2022-11-18T05:04:14.771Z,7.17
2022-11-18T05:06:41.509Z,7.18
2022-11-18T05:09:09.598Z,7.16
2022-11-18T05:11:55.044Z,7.14
2022-11-18T05:14:21.970Z,7.14
2022-11-18T05:16:48.754Z,7.16
2022-11-18T05:19:16.333Z,7.16
2022-11-18T05:21:43.292Z,7.14
2022-11-18T05:24:10.274Z,7.17
2022-11-18T05:26:37.082Z,7.12
2022-11-18T05:29:04.097Z,7.15
2022-11-18T05:31:30.866Z,7.16
2022-11-18T05:33:57.898Z,7.13
2022-11-18T05:36:24.699Z,7.07
2022-11-18T05:38:51.774Z,7.11
2022-11-18T05:41:37.403Z,7.11
2022-11-18T05:44:04.893Z,7.25
2022-11-18T05:46:31.656Z,7.21
2022-11-18T05:48:58.670Z,7.12
2022-11-18T05:51:25.386Z,7.11
2022-11-18T05:53:52.687Z,7.14
2022-11-18T05:56:25.611Z,7.12
2022-11-18T05:58:52.686Z,7.12
2022-11-18T06:01:28.041Z,7.11
2022-11-18T06:03:55.062Z,7.09
2022-11-18T06:06:22.934Z,7.11
2022-11-18T06:09:02.863Z,7.10
2022-11-18T06:11:35.923Z,7.09
2022-11-18T06:14:05.269Z,7.04
2022-11-18T06:16:35.331Z,7.08
2022-11-18T06:19:04.985Z,7.06
2022-11-18T06:21:31.692Z,7.06
2022-11-18T06:23:58.932Z,7.05
2022-11-18T06:26:25.722Z,7.04
2022-11-18T06:28:52.765Z,7.01
2022-11-18T06:31:19.591Z,6.99
2022-11-18T06:33:46.609Z,6.98
2022-11-18T06:36:13.329Z,6.99
2022-11-18T06:38:40.372Z,6.90
2022-11-18T06:41:07.145Z,6.93
2022-11-18T06:43:41.392Z,6.92
2022-11-18T06:46:29.017Z,6.97
2022-11-18T06:48:56.307Z,6.96
2022-11-18T06:51:23.547Z,6.92
2022-11-18T06:53:50.813Z,6.91
2022-11-18T06:56:18.421Z,6.86
2022-11-18T06:58:45.704Z,6.88
2022-11-18T07:01:14.434Z,6.84
2022-11-18T07:03:41.726Z,6.84
2022-11-18T07:06:08.621Z,6.86
2022-11-18T07:08:37.048Z,6.84
2022-11-18T07:11:08.323Z,6.84
2022-11-18T07:13:40.572Z,6.85
2022-11-18T07:16:21.637Z,6.83
2022-11-18T07:18:49.550Z,6.85
2022-11-18T07:21:24.149Z,6.85
2022-11-18T07:23:51.330Z,6.80
2022-11-18T07:26:18.200Z,6.84
2022-11-18T07:28:45.368Z,6.79
2022-11-18T07:31:13.657Z,6.81
2022-11-18T07:33:41.240Z,6.79
2022-11-18T07:36:12.695Z,6.78
2022-11-18T07:38:39.922Z,6.80
2022-11-18T07:41:13.744Z,6.84
2022-11-18T07:43:41.102Z,6.87
2022-11-18T07:46:11.510Z,6.83
2022-11-18T07:48:38.528Z,6.81
2022-11-18T07:51:05.425Z,6.84
2022-11-18T07:53:33.147Z,6.82
2022-11-18T07:56:00.160Z,6.84
2022-11-18T07:58:27.297Z,6.83
2022-11-18T08:00:54.040Z,6.84
2022-11-18T08:03:27.891Z,6.84
2022-11-18T08:06:01.476Z,6.79
2022-11-18T08:08:28.528Z,6.77
2022-11-18T08:10:57.121Z,6.87
2022-11-18T08:13:24.650Z,6.87
2022-11-18T08:15:51.445Z,6.85
2022-11-18T08:18:18.665Z,6.84
2022-11-18T08:20:45.382Z,6.87
2022-11-18T08:23:13.100Z,6.85
2022-11-18T08:25:40.537Z,6.83
2022-11-18T08:28:07.826Z,6.83
2022-11-18T08:30:34.799Z,6.85
2022-11-18T08:33:02.072Z,6.83
2022-11-18T08:35:29.383Z,6.83
2022-11-18T08:37:56.539Z,6.83
2022-11-18T08:40:23.731Z,6.83
2022-11-18T08:42:50.774Z,6.83
2022-11-18T08:45:17.582Z,6.80
2022-11-18T08:47:44.579Z,6.83
2022-11-18T08:50:11.531Z,6.80
2022-11-18T08:52:38.689Z,6.80
2022-11-18T08:55:05.755Z,6.80
2022-11-18T08:57:32.728Z,6.84
2022-11-18T08:59:59.530Z,6.79
2022-11-18T09:02:26.660Z,6.78
2022-11-18T09:04:53.644Z,6.78
2022-11-18T09:07:21.423Z,6.77
2022-11-18T09:09:48.238Z,6.78
2022-11-18T09:12:17.631Z,6.75
2022-11-18T09:17:32.184Z,6.74
2022-11-18T09:20:17.424Z,6.71
2022-11-18T09:22:44.187Z,6.72
2022-11-18T09:25:11.216Z,6.76
2022-11-18T09:27:37.936Z,6.77
2022-11-18T09:30:05.649Z,6.78
2022-11-18T09:32:33.261Z,6.76
2022-11-18T09:35:00.360Z,6.75
2022-11-18T09:37:27.065Z,6.76
2022-11-18T09:39:54.096Z,6.79
2022-11-18T09:42:37.951Z,6.75
2022-11-18T09:45:24.540Z,6.75
2022-11-18T09:47:51.614Z,6.73
2022-11-18T09:53:19.165Z,6.78
2022-11-18T09:55:46.176Z,6.80
2022-11-18T09:58:18.277Z,6.81
2022-11-18T10:00:46.746Z,6.80
2022-11-18T10:03:37.975Z,6.80
2022-11-18T10:06:31.180Z,6.78
2022-11-18T10:09:16.825Z,6.81
2022-11-18T10:12:05.211Z,6.77
2022-11-18T10:15:06.293Z,6.83
2022-11-18T10:17:54.870Z,6.77
2022-11-18T10:20:29.159Z,6.79
2022-11-18T10:23:14.684Z,6.74
2022-11-18T10:25:41.437Z,6.78
2022-11-18T10:28:15.715Z,6.74
2022-11-18T10:30:42.497Z,6.75
2022-11-18T10:33:21.477Z,6.75
2022-11-18T10:35:48.379Z,6.77
2022-11-18T10:38:15.356Z,6.75
2022-11-18T10:41:03.856Z,6.76
2022-11-18T10:43:45.907Z,6.77
2022-11-18T10:46:32.685Z,6.77
2022-11-18T10:49:09.037Z,6.74
2022-11-18T10:51:36.991Z,6.76
2022-11-18T10:54:23.220Z,6.76
2022-11-18T10:56:58.073Z,6.76
2022-11-18T10:59:46.674Z,6.78
2022-11-18T11:02:31.892Z,6.76
2022-11-18T11:05:03.665Z,6.76
2022-11-18T11:07:37.047Z,6.77
2022-11-18T11:10:10.335Z,6.79
2022-11-18T11:12:38.600Z,6.71
2022-11-18T11:15:09.243Z,6.73
2022-11-18T11:17:42.180Z,6.75
2022-11-18T11:20:21.916Z,6.71
2022-11-18T11:22:48.826Z,6.67
2022-11-18T11:25:22.774Z,6.72
2022-11-18T11:28:20.229Z,6.65
2022-11-18T11:31:22.091Z,6.65
2022-11-18T11:34:05.134Z,6.68
2022-11-18T11:36:50.477Z,6.64
2022-11-18T11:39:35.981Z,6.66
2022-11-18T11:42:06.384Z,6.68
2022-11-18T11:44:42.759Z,6.64
2022-11-18T11:47:43.828Z,6.63
2022-11-18T11:50:16.551Z,6.59
2022-11-18T11:53:14.504Z,6.61
2022-11-18T11:56:10.271Z,6.59
2022-11-18T11:58:42.530Z,6.54
2022-11-18T12:01:28.042Z,6.54
2022-11-18T12:04:30.657Z,6.57
2022-11-18T12:06:57.430Z,6.56
2022-11-18T12:09:39.755Z,6.58
2022-11-18T12:12:35.839Z,6.54
2022-11-18T12:15:19.114Z,6.52
2022-11-18T12:18:23.706Z,6.52
2022-11-18T12:20:52.319Z,6.57
2022-11-18T12:23:20.594Z,6.52
2022-11-18T12:25:47.598Z,6.54
2022-11-18T12:28:32.839Z,6.47
2022-11-18T12:31:18.297Z,6.47
2022-11-18T12:33:51.302Z,6.46
2022-11-18T12:36:44.894Z,6.45
2022-11-18T12:39:23.650Z,6.44
2022-11-18T12:42:09.075Z,6.45
2022-11-18T12:44:36.058Z,6.41
2022-11-18T12:47:03.778Z,6.45
2022-11-18T12:49:30.469Z,6.46
2022-11-18T12:52:00.400Z,6.45
2022-11-18T12:54:46.425Z,6.46
2022-11-18T12:57:28.226Z,6.46
2022-11-18T12:59:55.032Z,6.47
2022-11-18T13:02:29.448Z,6.45
2022-11-18T13:05:08.284Z,6.44
2022-11-18T13:08:04.655Z,6.47
2022-11-18T13:10:33.373Z,6.41
2022-11-18T13:13:00.477Z,6.38
2022-11-18T13:15:45.805Z,6.38
2022-11-18T13:18:18.030Z,6.38
2022-11-18T13:20:56.457Z,6.38
2022-11-18T13:23:49.920Z,6.30
2022-11-18T13:26:26.910Z,6.31
2022-11-18T13:29:03.294Z,6.21
2022-11-18T13:31:33.060Z,6.26
2022-11-18T13:34:03.705Z,6.25
2022-11-18T13:36:31.358Z,6.30
2022-11-18T13:39:03.306Z,6.25
2022-11-18T13:41:33.875Z,6.25
2022-11-18T13:44:11.938Z,6.30
2022-11-18T13:46:39.817Z,6.33
2022-11-18T13:49:06.888Z,6.26
2022-11-18T13:51:33.597Z,6.19
2022-11-18T13:54:01.013Z,6.23
2022-11-18T13:56:34.410Z,6.22
2022-11-18T13:59:17.009Z,6.22
2022-11-18T14:01:44.873Z,6.25
2022-11-18T14:04:25.886Z,6.22
2022-11-18T14:06:52.665Z,6.27
2022-11-18T14:09:22.530Z,6.25
2022-11-18T14:12:01.540Z,6.20
2022-11-18T14:14:36.057Z,6.26
2022-11-18T14:17:15.167Z,6.22
2022-11-18T14:19:42.341Z,6.23
2022-11-18T14:22:14.873Z,6.12
2022-11-18T14:24:42.351Z,6.21
2022-11-18T14:27:51.228Z,6.21
2022-11-18T14:30:27.795Z,6.15
2022-11-18T14:33:15.494Z,6.16
2022-11-18T14:35:45.178Z,6.19
2022-11-18T14:38:57.612Z,6.15
2022-11-18T14:41:03.520Z,6.14
2022-11-18T14:43:30.245Z,6.17
2022-11-18T14:46:02.675Z,6.19
2022-11-18T14:48:32.455Z,6.16
2022-11-18T14:51:00.239Z,6.18
2022-11-18T14:53:27.075Z,6.17
2022-11-18T14:55:54.443Z,6.08
2022-11-18T14:58:21.215Z,6.07
2022-11-18T15:00:48.979Z,6.13
2022-11-18T15:03:15.946Z,6.08
2022-11-18T15:05:43.127Z,6.09
2022-11-18T15:08:09.875Z,6.12
2022-11-18T15:10:37.079Z,6.08
2022-11-18T15:13:03.807Z,6.08
2022-11-18T15:15:30.867Z,6.08
2022-11-18T15:17:57.549Z,6.06
2022-11-18T15:20:24.620Z,6.00
2022-11-18T15:22:51.368Z,6.04
2022-11-18T15:25:18.417Z,6.01
2022-11-18T15:27:45.158Z,6.04
2022-11-18T15:30:13.534Z,6.02
2022-11-18T15:32:40.624Z,6.01
2022-11-18T15:35:08.280Z,5.94
2022-11-18T15:37:34.987Z,6.00
2022-11-18T15:40:02.000Z,5.97
2022-11-18T15:42:28.682Z,5.97
2022-11-18T15:44:55.778Z,5.98
2022-11-18T15:47:22.515Z,5.95
2022-11-18T15:49:49.612Z,5.94
2022-11-18T15:52:17.079Z,5.98
2022-11-18T15:54:44.643Z,5.87
2022-11-18T15:57:11.408Z,5.89
2022-11-18T15:59:38.471Z,5.85
2022-11-18T16:02:06.046Z,5.84
2022-11-18T16:04:33.064Z,5.91
2022-11-18T16:07:01.157Z,5.84
2022-11-18T16:09:48.305Z,5.95
2022-11-18T16:12:33.774Z,5.93
2022-11-18T16:15:19.654Z,5.96
2022-11-18T16:17:46.386Z,5.90
2022-11-18T16:20:13.465Z,5.88
2022-11-18T16:22:40.144Z,5.87
2022-11-18T16:25:07.497Z,5.84
2022-11-18T16:27:35.910Z,5.87
2022-11-18T16:30:04.311Z,5.90
2022-11-18T16:32:31.078Z,5.88
2022-11-18T16:35:01.329Z,5.87
2022-11-18T16:37:28.487Z,5.84
2022-11-18T16:39:55.537Z,5.79
2022-11-18T16:42:22.554Z,5.85
2022-11-18T16:44:49.678Z,5.84
2022-11-18T16:47:16.510Z,5.84
2022-11-18T16:49:44.019Z,5.78
2022-11-18T16:52:10.809Z,5.75
2022-11-18T16:54:44.283Z,5.81
2022-11-18T16:57:11.882Z,5.78
2022-11-18T16:59:38.981Z,5.79
2022-11-18T17:02:06.259Z,5.73
2022-11-18T17:04:36.409Z,5.74
2022-11-18T17:07:03.721Z,5.76
2022-11-18T17:09:30.956Z,5.75
2022-11-18T17:11:58.709Z,5.73
2022-11-18T17:14:25.890Z,5.65
2022-11-18T17:16:52.733Z,5.70
2022-11-18T17:19:21.248Z,5.69
2022-11-18T17:21:48.197Z,5.73
2022-11-18T17:24:16.866Z,5.79
2022-11-18T17:26:43.954Z,5.68
2022-11-18T17:29:11.716Z,5.68
2022-11-18T17:31:38.760Z,5.69
2022-11-18T17:34:05.945Z,5.70
2022-11-18T17:36:32.712Z,5.74
2022-11-18T17:38:59.992Z,5.71
2022-11-18T17:41:46.182Z,5.66
2022-11-18T17:44:14.924Z,5.66
2022-11-18T17:46:41.749Z,5.66
2022-11-18T17:49:16.451Z,5.68
2022-11-18T17:51:43.360Z,5.65
2022-11-18T17:54:10.445Z,5.76
2022-11-18T17:56:37.194Z,5.81
2022-11-18T17:59:05.855Z,5.80
2022-11-18T18:01:32.636Z,5.78
2022-11-18T18:03:59.843Z,5.79
2022-11-18T18:06:27.008Z,5.73
2022-11-18T18:08:57.778Z,5.75
2022-11-18T18:11:24.661Z,5.72
2022-11-18T18:14:10.466Z,5.73
2022-11-18T18:16:37.357Z,5.68
2022-11-18T18:19:05.167Z,5.71
2022-11-18T18:21:32.214Z,5.71
2022-11-18T18:23:59.315Z,5.70
2022-11-18T18:26:31.222Z,5.71
2022-11-18T18:28:59.733Z,5.69
2022-11-18T18:31:26.810Z,5.69
2022-11-18T18:33:53.956Z,5.68
2022-11-18T18:36:21.737Z,5.69
2022-11-18T18:38:52.515Z,5.70
2022-11-18T18:41:20.797Z,5.66
2022-11-18T18:43:48.516Z,5.63
2022-11-18T18:46:30.085Z,5.67
2022-11-18T18:49:06.790Z,5.60
2022-11-18T18:51:38.492Z,5.58
2022-11-18T18:54:05.816Z,5.61
2022-11-18T18:56:32.812Z,5.57
2022-11-18T18:59:00.231Z,5.60
2022-11-18T19:01:27.813Z,5.57
2022-11-18T19:03:56.384Z,5.61
2022-11-18T19:09:17.541Z,5.56
2022-11-18T19:12:05.606Z,5.58
2022-11-18T19:14:41.499Z,5.57
2022-11-18T19:17:12.630Z,5.62
2022-11-18T19:19:59.824Z,5.67
2022-11-18T19:22:28.968Z,5.61
2022-11-18T19:24:58.298Z,5.56
2022-11-18T19:27:25.444Z,5.56
2022-11-18T19:29:52.507Z,5.57
2022-11-18T19:32:19.225Z,5.57
2022-11-18T19:34:46.272Z,5.56
2022-11-18T19:37:14.356Z,5.55
2022-11-18T19:39:41.447Z,5.53
2022-11-18T19:42:11.135Z,5.48
2022-11-18T19:44:40.201Z,5.52
2022-11-18T19:47:06.970Z,5.45
2022-11-18T19:49:34.089Z,5.47
2022-11-18T19:52:00.822Z,5.43
2022-11-18T19:54:28.931Z,5.44
2022-11-18T19:56:58.747Z,5.47
2022-11-18T19:59:25.808Z,5.50
2022-11-18T20:01:52.557Z,5.48
2022-11-18T20:04:19.655Z,5.52
2022-11-18T20:06:46.452Z,5.45
2022-11-18T20:09:13.635Z,5.46
2022-11-18T20:11:40.411Z,5.49
2022-11-18T20:14:08.401Z,5.41
2022-11-18T20:16:36.100Z,5.42
2022-11-18T20:19:09.349Z,5.43
2022-11-18T20:21:39.111Z,5.44
2022-11-18T20:24:07.671Z,5.35
2022-11-18T20:26:35.702Z,5.43
2022-11-18T20:29:02.766Z,5.38
2022-11-18T20:31:29.570Z,5.36
2022-11-18T20:33:56.660Z,5.39
2022-11-18T20:36:27.724Z,5.36
2022-11-18T20:38:56.118Z,5.32
2022-11-18T20:41:23.382Z,5.36
2022-11-18T20:43:50.427Z,5.30
2022-11-18T20:46:20.660Z,5.35
2022-11-18T20:48:48.706Z,5.37
2022-11-18T20:51:15.455Z,5.38
2022-11-18T20:53:42.873Z,5.35
2022-11-18T20:56:10.491Z,5.35
2022-11-18T20:58:37.702Z,5.36
2022-11-18T21:01:21.837Z,5.35
2022-11-18T21:03:56.386Z,5.39
2022-11-18T21:06:25.245Z,5.38
2022-11-18T21:08:56.376Z,5.35
2022-11-18T21:11:23.118Z,5.33
2022-11-18T21:14:08.416Z,5.36
2022-11-18T21:16:35.140Z,5.35
2022-11-18T21:19:02.235Z,5.28
2022-11-18T21:21:47.683Z,5.31
2022-11-18T21:24:18.490Z,5.29
2022-11-18T21:26:46.143Z,5.34
2022-11-18T21:29:13.908Z,5.33
2022-11-18T21:31:41.010Z,5.35
2022-11-18T21:34:08.341Z,5.33
2022-11-18T21:36:37.007Z,5.32
2022-11-18T21:39:07.078Z,5.30
2022-11-18T21:41:34.803Z,5.30
2022-11-18T21:44:06.307Z,5.30
2022-11-18T21:46:37.410Z,5.28
2022-11-18T21:49:04.644Z,5.31
2022-11-18T21:51:32.224Z,5.29
2022-11-18T21:53:59.859Z,5.33
2022-11-18T21:56:31.166Z,5.29
2022-11-18T21:59:02.417Z,5.29
2022-11-18T22:01:31.095Z,5.30
2022-11-18T22:03:59.835Z,5.29
2022-11-18T22:06:29.651Z,5.30
2022-11-18T22:08:56.707Z,5.29
2022-11-18T22:11:24.219Z,5.26
2022-11-18T22:13:51.982Z,5.26
2022-11-18T22:16:20.283Z,5.23
2022-11-18T22:18:53.030Z,5.24
2022-11-18T22:21:23.194Z,5.23
2022-11-18T22:23:50.330Z,5.17
2022-11-18T22:26:18.744Z,5.22
2022-11-18T22:28:46.083Z,5.20
2022-11-18T22:31:14.400Z,5.20
2022-11-18T22:33:41.496Z,5.17
2022-11-18T22:36:10.467Z,5.19
2022-11-18T22:38:37.575Z,5.15
2022-11-18T22:41:05.424Z,5.18
2022-11-18T22:43:33.244Z,5.18
2022-11-18T22:46:04.435Z,5.18
2022-11-18T22:48:31.492Z,5.19
2022-11-18T22:51:02.557Z,5.17
2022-11-18T22:53:29.880Z,5.15
2022-11-18T22:56:06.545Z,5.14
2022-11-18T22:58:33.751Z,5.17
2022-11-18T23:01:04.846Z,5.20
2022-11-18T23:03:32.017Z,5.21
2022-11-18T23:05:58.864Z,5.19
2022-11-18T23:08:26.346Z,5.15
2022-11-18T23:10:53.265Z,5.14
2022-11-18T23:13:38.693Z,5.18
2022-11-18T23:16:05.752Z,5.16
2022-11-18T23:18:32.766Z,5.17
2022-11-18T23:21:00.661Z,5.13
2022-11-18T23:23:28.583Z,5.08
2022-11-18T23:25:55.590Z,5.12
2022-11-18T23:28:22.640Z,5.09
2022-11-18T23:30:49.388Z,5.10
2022-11-18T23:33:16.408Z,5.13
2022-11-18T23:35:43.116Z,5.17
2022-11-18T23:38:10.180Z,5.12
2022-11-18T23:40:36.936Z,5.15
2022-11-18T23:43:03.956Z,5.14
2022-11-18T23:45:30.872Z,5.09
2022-11-18T23:47:57.940Z,5.13
2022-11-18T23:50:24.624Z,5.08
2022-11-18T23:52:51.643Z,5.10
2022-11-18T23:55:18.382Z,5.12
2022-11-18T23:57:45.375Z,5.13
